createdAt,value
2022-11-24T00:01:52.371Z,3.80
2022-11-24T00:04:18.941Z,3.91
2022-11-24T00:06:45.407Z,3.99
2022-11-24T00:09:12.010Z,4.19
2022-11-24T00:11:38.545Z,4.38
2022-11-24T00:14:06.283Z,4.35
2022-11-24T00:16:34.065Z,4.21
2022-11-24T00:19:01.912Z,4.22
2022-11-24T00:21:29.508Z,4.30
2022-11-24T00:23:56.394Z,3.89
2022-11-24T00:26:24.558Z,4.21
2022-11-24T00:28:52.365Z,4.31
2022-11-24T00:31:23.779Z,4.19
2022-11-24T00:33:51.795Z,4.04
2022-11-24T00:36:19.766Z,3.94
2022-11-24T00:38:46.304Z,4.10
2022-11-24T00:41:13.301Z,4.13
2022-11-24T00:43:39.904Z,3.94
2022-11-24T00:46:06.472Z,4.04
2022-11-24T00:48:32.982Z,3.70
2022-11-24T00:51:05.097Z,3.71
2022-11-24T00:53:31.559Z,3.50
2022-11-24T00:55:58.063Z,3.56
2022-11-24T00:58:24.904Z,3.58
2022-11-24T01:00:51.885Z,3.52
2022-11-24T01:03:19.050Z,3.10
2022-11-24T01:05:45.689Z,3.04
2022-11-24T01:08:12.255Z,3.16
2022-11-24T01:10:38.756Z,3.15
2022-11-24T01:13:05.230Z,3.28
2022-11-24T01:15:31.846Z,3.26
2022-11-24T01:17:58.369Z,3.34
2022-11-24T01:20:24.838Z,3.47
2022-11-24T01:22:51.280Z,3.25
2022-11-24T01:25:17.723Z,2.98
2022-11-24T01:27:44.317Z,2.87
2022-11-24T01:30:11.055Z,3.24
2022-11-24T01:32:37.525Z,3.21
2022-11-24T01:35:04.637Z,3.07
2022-11-24T01:37:31.230Z,3.18
2022-11-24T01:39:57.730Z,3.01
2022-11-24T01:42:24.438Z,3.06
2022-11-24T01:45:10.852Z,2.99
2022-11-24T01:47:40.784Z,3.57
2022-11-24T01:50:14.060Z,3.36
2022-11-24T01:52:42.954Z,3.01
2022-11-24T01:55:13.325Z,3.01
2022-11-24T01:57:56.099Z,3.22
2022-11-24T02:00:22.570Z,3.07
2022-11-24T02:02:49.546Z,2.95
2022-11-24T02:05:22.373Z,2.86
2022-11-24T02:07:49.436Z,2.71
2022-11-24T02:10:16.072Z,2.88
2022-11-24T02:12:45.423Z,2.98
2022-11-24T02:15:14.077Z,2.94
2022-11-24T02:17:40.480Z,2.88
2022-11-24T02:20:09.002Z,2.72
2022-11-24T02:22:57.047Z,2.49
2022-11-24T02:25:44.650Z,2.43
2022-11-24T02:28:15.236Z,2.66
2022-11-24T02:30:41.804Z,2.80
2022-11-24T02:33:09.873Z,2.69
2022-11-24T02:35:36.445Z,2.73
2022-11-24T02:38:02.986Z,2.72
2022-11-24T02:40:30.947Z,2.65
2022-11-24T02:43:04.281Z,2.59
2022-11-24T02:45:31.821Z,2.68
2022-11-24T02:47:58.424Z,2.69
2022-11-24T02:50:25.028Z,2.65
2022-11-24T02:52:51.440Z,2.65
2022-11-24T02:55:17.982Z,2.43
2022-11-24T02:57:44.460Z,2.49
2022-11-24T03:00:11.178Z,3.46
2022-11-24T03:02:37.788Z,3.06
2022-11-24T03:05:04.468Z,3.10
2022-11-24T03:07:30.919Z,3.53
2022-11-24T03:09:57.370Z,3.28
2022-11-24T03:12:23.860Z,3.20
2022-11-24T03:14:50.329Z,3.41
2022-11-24T03:17:16.763Z,3.28
2022-11-24T03:19:43.225Z,3.23
2022-11-24T03:22:09.685Z,3.33
2022-11-24T03:24:36.319Z,3.36
2022-11-24T03:27:02.896Z,3.25
2022-11-24T03:29:29.407Z,3.18
2022-11-24T03:31:55.841Z,3.23
2022-11-24T03:34:22.309Z,3.01
2022-11-24T03:36:48.749Z,3.22
2022-11-24T03:39:15.645Z,3.22
2022-11-24T03:41:42.431Z,3.26
2022-11-24T03:44:09.061Z,3.30
2022-11-24T03:46:35.594Z,3.00
2022-11-24T03:49:02.100Z,3.07
2022-11-24T03:51:28.509Z,3.05
2022-11-24T03:53:54.984Z,3.08
2022-11-24T03:56:21.393Z,2.85
2022-11-24T03:58:47.873Z,2.94
2022-11-24T04:01:14.414Z,2.79
2022-11-24T04:03:40.962Z,2.87
2022-11-24T04:06:07.441Z,2.93
2022-11-24T04:08:33.862Z,2.99
2022-11-24T04:11:00.919Z,2.95
2022-11-24T04:13:27.445Z,2.88
2022-11-24T04:15:54.488Z,2.96
2022-11-24T04:18:21.407Z,2.76
2022-11-24T11:41:42.729Z,13.29
2022-11-24T11:44:27.366Z,13.94
2022-11-24T11:46:54.951Z,14.35
2022-11-24T11:49:21.423Z,14.12
2022-11-24T11:51:55.451Z,14.85
2022-11-24T11:54:24.944Z,14.77
2022-11-24T11:57:02.208Z,14.68
2022-11-24T11:59:36.012Z,14.78
2022-11-24T12:02:21.174Z,14.27
2022-11-24T12:04:56.737Z,14.75
2022-11-24T12:07:46.559Z,14.54
2022-11-24T12:10:31.385Z,13.93
2022-11-24T12:13:17.217Z,13.75
2022-11-24T12:15:52.612Z,14.44
2022-11-24T12:18:55.279Z,14.79
2022-11-24T12:21:21.530Z,14.95
2022-11-24T12:24:05.017Z,14.90
2022-11-24T12:26:40.677Z,15.24
2022-11-24T12:29:19.381Z,14.92
2022-11-24T12:31:59.630Z,15.47
2022-11-24T12:34:45.615Z,15.50
2022-11-24T12:37:24.107Z,15.07
2022-11-24T12:40:13.387Z,15.71
2022-11-24T12:42:45.721Z,16.18
2022-11-24T12:45:14.512Z,15.04
2022-11-24T12:47:40.906Z,15.13
2022-11-24T12:50:12.674Z,15.00
2022-11-24T12:52:46.538Z,14.98
2022-11-24T12:55:16.565Z,14.43
2022-11-24T12:57:47.790Z,14.03
2022-11-24T13:00:19.506Z,14.19
2022-11-24T13:02:49.061Z,13.73
2022-11-24T13:05:24.789Z,13.73
2022-11-24T13:08:02.309Z,13.55
2022-11-24T13:10:54.094Z,13.81
2022-11-24T13:13:17.041Z,14.29
2022-11-24T13:16:13.204Z,14.47
2022-11-24T13:19:14.693Z,14.82
2022-11-24T13:21:41.373Z,14.94
2022-11-24T13:24:17.726Z,13.96
2022-11-24T13:26:47.404Z,14.51
2022-11-24T13:29:31.957Z,15.09
2022-11-24T13:32:01.425Z,15.63
2022-11-24T13:34:43.224Z,15.82
2022-11-24T13:37:31.244Z,15.08
2022-11-24T13:40:14.311Z,14.96
2022-11-24T13:42:56.363Z,14.81
2022-11-24T13:45:49.569Z,15.04
2022-11-24T13:48:19.496Z,14.92
2022-11-24T13:50:53.958Z,14.19
2022-11-24T13:53:38.773Z,14.03
2022-11-24T13:56:11.448Z,14.96
2022-11-24T13:58:45.025Z,15.00
2022-11-24T14:01:30.467Z,14.51
2022-11-24T14:04:29.862Z,14.49
2022-11-24T14:06:48.244Z,12.94
2022-11-24T14:09:34.965Z,13.08
2022-11-24T14:12:20.786Z,12.57
2022-11-24T14:15:07.218Z,12.90
2022-11-24T14:17:33.682Z,11.94
2022-11-24T14:20:00.144Z,11.33
2022-11-24T14:22:43.390Z,10.78
2022-11-24T14:25:30.553Z,10.63
2022-11-24T14:27:57.368Z,10.46
2022-11-24T14:30:24.837Z,10.66
2022-11-24T14:32:54.876Z,10.74
2022-11-24T14:35:26.121Z,10.61
2022-11-24T14:37:52.713Z,10.67
2022-11-24T14:40:38.053Z,10.65
2022-11-24T14:43:05.914Z,10.02
2022-11-24T14:45:34.031Z,9.47
2022-11-24T14:48:00.488Z,9.02
2022-11-24T14:50:27.042Z,9.25
2022-11-24T14:52:57.911Z,9.60
2022-11-24T14:55:26.285Z,9.34
2022-11-24T14:57:52.794Z,9.48
2022-11-24T15:00:19.550Z,9.47
2022-11-24T15:02:48.515Z,9.18
2022-11-24T15:05:15.558Z,9.05
2022-11-24T15:07:49.500Z,9.19
2022-11-24T15:10:21.358Z,9.00
2022-11-24T15:12:55.907Z,8.92
2022-11-24T15:15:32.197Z,8.61
2022-11-24T15:17:59.526Z,8.55
2022-11-24T15:20:31.936Z,8.53
2022-11-24T15:23:17.291Z,8.37
2022-11-24T15:25:43.837Z,8.18
2022-11-24T15:28:10.536Z,8.12
2022-11-24T15:30:37.519Z,7.89
2022-11-24T15:33:11.425Z,7.91
2022-11-24T15:35:37.911Z,7.91
2022-11-24T15:38:04.382Z,7.68
2022-11-24T15:40:31.151Z,7.64
2022-11-24T15:43:00.792Z,7.08
2022-11-24T15:45:29.889Z,7.32
2022-11-24T15:47:56.356Z,7.47
2022-11-24T15:50:23.604Z,7.56
2022-11-24T15:52:50.085Z,7.58
2022-11-24T15:55:21.881Z,7.37
2022-11-24T15:57:48.893Z,7.36
2022-11-24T16:00:16.485Z,7.38
2022-11-24T16:02:42.985Z,7.30
2022-11-24T16:05:09.766Z,7.39
2022-11-24T16:07:36.418Z,7.30
2022-11-24T16:10:03.133Z,7.45
2022-11-24T16:12:29.777Z,7.26
2022-11-24T16:14:56.228Z,7.20
2022-11-24T16:17:23.004Z,7.16
2022-11-24T16:19:59.813Z,7.11
2022-11-24T16:22:26.976Z,6.88
2022-11-24T16:24:53.414Z,6.61
2022-11-24T16:27:19.867Z,6.55
2022-11-24T16:29:46.368Z,6.52
2022-11-24T16:32:12.861Z,6.61
2022-11-24T16:34:39.317Z,6.81
2022-11-24T16:37:05.788Z,6.81
2022-11-24T16:39:32.311Z,6.70
2022-11-24T16:41:58.763Z,6.80
2022-11-24T16:44:25.228Z,6.77
2022-11-24T16:46:51.741Z,6.72
2022-11-24T16:49:18.276Z,6.56
2022-11-24T16:51:44.752Z,6.58
2022-11-24T16:54:11.735Z,6.74
2022-11-24T16:56:38.186Z,6.80
2022-11-24T16:59:04.997Z,6.81
2022-11-24T17:01:32.853Z,6.84
2022-11-24T17:03:59.722Z,6.87
2022-11-24T17:06:26.883Z,7.00
2022-11-24T17:08:54.969Z,6.89
2022-11-24T17:11:22.859Z,6.86
2022-11-24T17:13:49.593Z,7.04
2022-11-24T17:16:17.436Z,6.72
2022-11-24T17:18:44.423Z,6.59
2022-11-24T17:21:15.445Z,6.69
2022-11-24T17:23:41.990Z,6.71
2022-11-24T17:26:11.250Z,6.76
2022-11-24T17:28:37.730Z,6.70
2022-11-24T17:31:08.146Z,6.53
2022-11-24T17:33:35.163Z,6.80
2022-11-24T17:36:02.796Z,6.48
2022-11-24T17:38:30.942Z,6.69
2022-11-24T17:40:57.947Z,6.77
2022-11-24T17:43:24.986Z,6.67
2022-11-24T17:45:59.195Z,6.38
2022-11-24T17:48:25.768Z,6.61
2022-11-24T17:51:12.795Z,6.71
2022-11-24T17:53:40.036Z,6.46
2022-11-24T17:56:07.228Z,6.47
2022-11-24T17:58:38.322Z,6.48
2022-11-24T18:01:07.998Z,6.48
2022-11-24T18:03:34.519Z,6.25
2022-11-24T18:06:05.794Z,6.36
2022-11-24T18:08:33.082Z,6.28
2022-11-24T18:11:03.814Z,6.25
2022-11-24T18:13:54.832Z,6.21
2022-11-24T18:16:17.158Z,6.03
2022-11-24T18:18:48.829Z,5.86
2022-11-24T18:21:17.221Z,5.93
2022-11-24T18:23:43.766Z,5.85
2022-11-24T18:26:14.972Z,5.84
2022-11-24T18:28:42.302Z,6.00
2022-11-24T18:31:10.589Z,5.82
2022-11-24T18:33:37.796Z,5.74
2022-11-24T18:36:06.573Z,5.87
2022-11-24T18:38:34.809Z,6.03
2022-11-24T18:41:01.538Z,5.72
2022-11-24T18:43:29.294Z,5.81
2022-11-24T18:45:56.161Z,5.80
2022-11-24T18:48:23.880Z,5.85
2022-11-24T18:50:51.705Z,5.72
2022-11-24T18:53:18.940Z,5.64
2022-11-24T18:56:06.415Z,5.59
2022-11-24T18:58:34.044Z,5.68
2022-11-24T19:01:14.588Z,5.74
2022-11-24T19:03:47.896Z,5.55
2022-11-24T19:06:16.654Z,5.30
2022-11-24T19:08:43.317Z,5.49
2022-11-24T19:11:16.054Z,5.35
2022-11-24T19:13:42.500Z,5.49
2022-11-24T19:16:12.711Z,5.55
2022-11-24T19:18:39.256Z,5.68
2022-11-24T19:21:05.870Z,5.84
2022-11-24T19:23:32.340Z,5.81
2022-11-24T19:26:02.682Z,5.69
2022-11-24T19:28:29.225Z,5.44
2022-11-24T19:31:02.590Z,5.42
2022-11-24T19:33:29.231Z,5.36
2022-11-24T19:36:02.881Z,5.18
2022-11-24T19:38:30.501Z,5.30
2022-11-24T19:41:14.841Z,5.12
2022-11-24T19:43:41.623Z,4.90
2022-11-24T19:46:09.437Z,4.63
2022-11-24T19:48:43.260Z,4.81
2022-11-24T19:51:14.466Z,4.92
2022-11-24T19:53:41.270Z,4.71
2022-11-24T19:56:08.941Z,4.77
2022-11-24T19:58:35.759Z,4.62
2022-11-24T20:01:09.422Z,4.72
2022-11-24T20:03:36.512Z,4.84
2022-11-24T20:06:03.305Z,4.51
2022-11-24T20:08:30.722Z,4.24
2022-11-24T20:11:10.974Z,4.40
2022-11-24T20:13:38.230Z,4.34
2022-11-24T20:16:05.337Z,4.48
2022-11-24T20:18:35.225Z,4.52
2022-11-24T20:21:08.161Z,4.29
2022-11-24T20:23:35.076Z,4.61
2022-11-24T20:26:04.505Z,4.48
2022-11-24T20:28:31.180Z,4.47
2022-11-24T20:31:01.835Z,4.30
2022-11-24T20:33:28.698Z,4.18
2022-11-24T20:35:55.372Z,4.13
2022-11-24T20:38:21.845Z,3.99
2022-11-24T20:40:48.262Z,3.88
2022-11-24T20:43:14.891Z,4.15
2022-11-24T20:45:41.459Z,4.17
2022-11-24T20:48:08.015Z,4.25
2022-11-24T20:50:35.986Z,4.19
2022-11-24T20:53:02.429Z,4.15
2022-11-24T20:55:28.863Z,3.99
2022-11-24T20:57:55.275Z,4.11
2022-11-24T21:00:21.795Z,3.87
2022-11-24T21:02:48.751Z,3.61
2022-11-24T21:05:15.304Z,3.72
2022-11-24T21:07:41.788Z,3.78
2022-11-24T21:10:08.424Z,3.87
2022-11-24T21:12:36.726Z,3.81
2022-11-24T21:15:03.355Z,3.56
2022-11-24T21:17:31.817Z,3.49
2022-11-24T21:20:00.958Z,3.67
2022-11-24T21:22:28.017Z,4.31
2022-11-24T21:24:54.421Z,3.88
2022-11-24T21:27:20.885Z,3.68
2022-11-24T21:29:47.304Z,3.46
2022-11-24T21:32:13.720Z,3.45
2022-11-24T21:34:40.148Z,3.38
2022-11-24T21:37:07.100Z,3.59
2022-11-24T21:39:33.682Z,3.69
2022-11-24T21:42:00.334Z,3.62
2022-11-24T21:44:27.023Z,3.60
2022-11-24T21:46:56.099Z,3.56
2022-11-24T21:49:22.752Z,3.60
2022-11-24T21:51:55.364Z,3.53
2022-11-24T21:54:22.217Z,3.44
2022-11-24T21:56:48.647Z,3.29
2022-11-24T21:59:15.127Z,3.12
2022-11-24T22:01:41.613Z,3.09
2022-11-24T22:04:09.138Z,2.97
2022-11-24T22:06:35.556Z,3.26
2022-11-24T22:09:02.048Z,3.26
2022-11-24T22:11:28.505Z,3.39
2022-11-24T22:13:54.953Z,3.54
2022-11-24T22:16:22.576Z,3.59
2022-11-24T22:18:49.124Z,3.62
2022-11-24T22:21:16.796Z,3.56
2022-11-24T22:23:43.452Z,3.61
2022-11-24T22:26:15.324Z,3.52
2022-11-24T22:28:42.502Z,3.45
2022-11-24T22:31:13.495Z,3.51
2022-11-24T22:33:40.316Z,3.31
2022-11-24T22:36:06.910Z,3.36
2022-11-24T22:38:34.218Z,3.32
2022-11-24T22:41:05.252Z,2.93
2022-11-24T22:43:32.833Z,2.96
2022-11-24T22:46:26.112Z,2.88
2022-11-24T22:48:53.252Z,3.09
2022-11-24T22:51:26.966Z,2.98
2022-11-24T22:53:55.112Z,2.86
2022-11-24T22:56:21.632Z,2.75
2022-11-24T22:58:48.292Z,2.85
2022-11-24T23:01:19.292Z,2.78
2022-11-24T23:03:46.179Z,2.75
2022-11-24T23:06:13.825Z,2.64
2022-11-24T23:08:40.745Z,2.53
2022-11-24T23:11:18.235Z,2.37
2022-11-24T23:13:44.756Z,2.33
2022-11-24T23:16:15.684Z,2.39
2022-11-24T23:18:42.723Z,2.50
2022-11-24T23:21:18.301Z,3.19
2022-11-24T23:23:45.280Z,3.82
2022-11-24T23:26:12.997Z,3.46
2022-11-24T23:28:40.021Z,2.94
2022-11-24T23:31:08.471Z,2.59
2022-11-24T23:33:35.501Z,2.21
2022-11-24T23:36:06.711Z,2.28
2022-11-24T23:38:33.334Z,2.28
2022-11-24T23:41:00.730Z,2.35
2022-11-24T23:43:27.189Z,2.43
2022-11-24T23:45:53.666Z,2.51
2022-11-24T23:48:20.216Z,2.26
2022-11-24T23:50:46.661Z,2.25
2022-11-24T23:53:13.103Z,2.11
2022-11-24T23:55:39.635Z,2.29
2022-11-24T23:58:07.067Z,2.31
